Time;durP1;ratioP1;P1;durP2;ratioP2;P2;SDS_P1;SDS_P2;PMS_P1;PMS_P2;Temp;Humidity;BMP_temperature;BMP_pressure;BME280_temperature;BME280_humidity;BME280_pressure;Samples;Min_cycle;Max_cycle;Signal;HPM_P1;HPM_P2
2021/04/02 00:00:45;;;;;;;6.97;2.90;;;;;;;7.90;36.40;102017.69;7927876;28;20138;-64
2021/04/02 00:04:36;;;;;;;4.75;2.78;;;;;;;7.82;36.77;102017.97;7927975;28;20574;-64
2021/04/02 00:08:27;;;;;;;3.65;2.67;;;;;;;7.78;36.45;102023.34;7926923;28;20130;-64
2021/04/02 00:12:18;;;;;;;8.70;2.85;;;;;;;7.72;36.42;102018.34;7929952;28;20026;-65
2021/04/02 00:16:13;;;;;;;5.25;2.67;;;;;;;7.66;36.69;102019.44;7929278;28;20140;-64
2021/04/02 00:20:07;;;;;;;4.55;2.42;;;;;;;7.61;36.46;102016.13;7928327;28;20476;-64
2021/04/02 00:23:57;;;;;;;8.07;2.95;;;;;;;7.54;36.79;102021.63;7928123;28;20034;-64
2021/04/02 00:27:48;;;;;;;4.53;3.10;;;;;;;7.50;36.56;102026.94;7930623;28;20030;-64
2021/04/02 00:31:39;;;;;;;3.35;2.75;;;;;;;7.43;36.84;102022.84;7928826;28;20048;-64
2021/04/02 00:35:29;;;;;;;5.03;2.70;;;;;;;7.37;36.92;102010.00;7927199;28;20115;-64
2021/04/02 00:39:20;;;;;;;8.90;2.85;;;;;;;7.31;36.86;102006.72;7920570;28;20504;-64
2021/04/02 00:43:12;;;;;;;4.63;3.13;;;;;;;7.26;37.22;102006.00;7924173;28;20117;-64
2021/04/02 00:47:03;;;;;;;6.38;3.42;;;;;;;7.21;36.77;102013.19;7927373;28;20041;-64
2021/04/02 00:51:00;;;;;;;5.80;2.88;;;;;;;7.09;37.22;101998.78;7925564;28;20034;-64
2021/04/02 00:54:51;;;;;;;3.95;2.90;;;;;;;7.10;36.99;102004.84;7928715;28;20042;-64
2021/04/02 00:58:42;;;;;;;4.80;3.00;;;;;;;7.05;37.38;102002.38;7928362;28;20145;-64
2021/04/02 01:02:33;;;;;;;7.55;3.20;;;;;;;6.98;37.59;102006.09;7925587;28;20034;-65
2021/04/02 01:06:29;;;;;;;4.75;3.00;;;;;;;6.93;37.29;102006.25;7929816;28;20415;-64
2021/04/02 01:10:22;;;;;;;7.50;2.90;;;;;;;6.88;37.18;102002.09;7930898;28;20060;-64
2021/04/02 01:14:12;;;;;;;8.48;2.72;;;;;;;6.83;37.73;102004.84;7927069;28;20513;-64
2021/04/02 01:18:12;;;;;;;5.40;3.40;;;;;;;6.78;37.75;102008.50;7933677;28;20046;-65
2021/04/02 01:22:06;;;;;;;6.63;2.72;;;;;;;6.66;37.76;101994.06;7936982;28;20499;-64
2021/04/02 01:26:23;;;;;;;7.60;2.88;;;;;;;6.67;37.60;102001.00;7936639;28;20465;-64
2021/04/02 01:30:14;;;;;;;6.88;3.30;;;;;;;6.61;37.65;102000.31;7934873;28;20030;-64
2021/04/02 01:34:08;;;;;;;7.82;3.80;;;;;;;6.56;37.56;102001.31;7934664;28;20034;-64
2021/04/02 01:38:20;;;;;;;5.00;2.85;;;;;;;6.49;37.79;102002.44;7933560;28;20104;-64
2021/04/02 01:42:18;;;;;;;3.97;2.75;;;;;;;6.44;38.13;102004.31;7933508;28;20043;-64
2021/04/02 01:46:10;;;;;;;9.90;3.17;;;;;;;6.41;37.81;102012.25;7932841;28;20038;-65
2021/04/02 01:50:04;;;;;;;9.38;3.58;;;;;;;6.36;37.91;102016.75;7932606;28;20038;-64
2021/04/02 01:53:59;;;;;;;3.92;2.78;;;;;;;6.32;38.16;102009.91;7941338;28;20070;-64
2021/04/02 01:57:53;;;;;;;6.10;2.78;;;;;;;6.29;38.30;102009.16;7940240;28;20053;-64
2021/04/02 02:01:50;;;;;;;3.72;2.75;;;;;;;6.26;38.22;102009.25;7938687;28;20042;-64
2021/04/02 02:05:47;;;;;;;3.47;2.85;;;;;;;6.26;38.52;102012.72;7937204;28;20498;-64
2021/04/02 02:09:50;;;;;;;5.45;2.83;;;;;;;6.29;38.22;102006.53;7931222;28;20034;-65
2021/04/02 02:14:16;;;;;;;4.35;2.55;;;;;;;6.32;38.42;102022.97;7929146;28;20050;-64
2021/04/02 02:18:17;;;;;;;8.88;3.17;;;;;;;6.33;38.77;102016.00;7932496;28;20042;-64
2021/04/02 02:22:10;;;;;;;4.20;2.33;;;;;;;6.38;38.67;102017.56;7924623;28;20084;-64
2021/04/02 02:26:09;;;;;;;5.75;2.92;;;;;;;6.40;38.74;102012.28;7937413;28;20044;-64
2021/04/02 02:30:02;;;;;;;5.22;2.70;;;;;;;6.41;39.04;102008.78;7930691;28;20029;-64
2021/04/02 02:33:56;;;;;;;6.38;2.28;;;;;;;6.39;38.88;102011.44;7931615;28;20057;-64
2021/04/02 02:37:57;;;;;;;5.78;2.40;;;;;;;6.39;38.90;102008.81;7937356;28;20124;-64
2021/04/02 02:41:48;;;;;;;5.78;2.28;;;;;;;6.42;38.99;102016.56;7929945;28;20044;-64
2021/04/02 02:45:39;;;;;;;4.70;2.25;;;;;;;6.42;38.98;102020.94;7920425;28;20049;-65
2021/04/02 02:49:32;;;;;;;6.53;2.85;;;;;;;6.43;39.29;102012.19;7938875;28;20037;-64
2021/04/02 02:53:27;;;;;;;6.40;3.00;;;;;;;6.43;39.34;102017.41;7929637;28;20168;-65
2021/04/02 02:57:19;;;;;;;4.15;1.88;;;;;;;6.43;39.23;102005.22;7931104;28;20033;-64
2021/04/02 03:01:15;;;;;;;6.13;2.35;;;;;;;6.46;39.31;102017.34;7929964;28;20137;-65
2021/04/02 03:05:09;;;;;;;3.45;1.90;;;;;;;6.40;39.51;102007.06;7907903;28;20046;-65
2021/04/02 03:09:01;;;;;;;4.00;2.00;;;;;;;6.44;39.58;102014.75;7931539;28;20038;-65
2021/04/02 03:12:58;;;;;;;2.45;1.92;;;;;;;6.43;39.50;101999.13;7936562;28;20034;-65
2021/04/02 03:16:53;;;;;;;6.32;1.90;;;;;;;6.45;39.50;101999.97;7937902;28;20035;-65
2021/04/02 03:20:48;;;;;;;2.92;1.80;;;;;;;6.43;39.76;102002.59;7933598;28;20026;-65
2021/04/02 03:24:42;;;;;;;5.25;2.08;;;;;;;6.41;39.50;102001.81;7938017;28;20567;-65
2021/04/02 03:28:38;;;;;;;4.22;1.95;;;;;;;6.39;39.57;101997.53;7933426;28;20162;-65
2021/04/02 03:32:30;;;;;;;3.80;2.03;;;;;;;6.38;39.88;101990.63;7927577;28;20038;-64
2021/04/02 03:36:30;;;;;;;3.95;2.03;;;;;;;6.36;40.07;102010.66;7930189;28;20081;-65
2021/04/02 03:40:31;;;;;;;4.88;2.30;;;;;;;6.34;39.64;102012.50;7933823;28;20052;-65
2021/04/02 03:44:30;;;;;;;6.05;2.03;;;;;;;6.32;40.21;102011.66;7930730;28;20046;-64
2021/04/02 03:48:23;;;;;;;3.58;2.05;;;;;;;6.30;40.04;102009.13;7935443;28;20388;-64
2021/04/02 03:52:20;;;;;;;4.07;2.15;;;;;;;6.29;40.13;102009.16;7936569;28;20446;-64
2021/04/02 03:56:16;;;;;;;3.92;2.25;;;;;;;6.25;40.05;102011.00;7929573;28;20145;-64
2021/04/02 04:00:20;;;;;;;6.28;1.92;;;;;;;6.25;40.16;102015.38;7930622;28;20042;-64
2021/04/02 04:04:26;;;;;;;5.30;2.25;;;;;;;6.24;40.15;102013.66;7934419;28;20045;-64
2021/04/02 04:08:20;;;;;;;6.60;2.17;;;;;;;6.23;39.98;102014.53;7928141;28;20112;-64
2021/04/02 04:12:15;;;;;;;6.13;2.42;;;;;;;6.21;40.41;102016.38;7929264;28;20027;-64
2021/04/02 04:16:14;;;;;;;;;;;;;;;6.11;39.97;102016.63;7928936;28;20048;-64
2021/04/02 04:20:06;;;;;;;5.45;1.92;;;;;;;6.11;40.18;102010.56;7932190;28;20301;-64
2021/04/02 04:24:05;;;;;;;7.88;2.50;;;;;;;6.10;40.32;102014.06;7919872;28;20042;-64
2021/04/02 04:27:58;;;;;;;8.20;2.40;;;;;;;6.09;40.32;102007.16;7927598;28;20111;-64
2021/04/02 04:31:51;;;;;;;5.95;1.98;;;;;;;6.06;40.69;102009.81;7932960;28;20065;-64
2021/04/02 04:35:42;;;;;;;3.13;1.83;;;;;;;6.09;40.33;102022.81;7927810;28;20049;-65
2021/04/02 04:39:34;;;;;;;6.55;2.25;;;;;;;6.07;40.70;102017.63;7931858;28;20046;-64
2021/04/02 04:43:26;;;;;;;4.57;2.28;;;;;;;6.06;40.90;102022.88;7917907;28;20088;-64
2021/04/02 04:47:16;;;;;;;4.18;2.65;;;;;;;6.00;40.81;102023.91;7926935;28;20044;-64
2021/04/02 04:51:09;;;;;;;8.77;2.65;;;;;;;6.00;40.55;102029.13;7927269;28;20113;-64
2021/04/02 04:55:02;;;;;;;5.65;2.35;;;;;;;5.95;40.57;102032.75;7935374;28;20061;-64
2021/04/02 04:58:57;;;;;;;4.72;2.30;;;;;;;5.92;40.75;102046.75;7927228;28;20196;-64
2021/04/02 05:02:48;;;;;;;5.43;2.30;;;;;;;5.89;41.13;102039.00;7934967;28;20066;-64
2021/04/02 05:06:41;;;;;;;7.20;2.70;;;;;;;5.88;40.79;102024.28;7928924;28;20038;-64
2021/04/02 05:10:33;;;;;;;6.03;2.38;;;;;;;5.91;40.96;102044.19;7928927;28;20068;-64
2021/04/02 05:14:25;;;;;;;5.22;2.15;;;;;;;5.90;41.21;102038.09;7927898;28;20033;-64
2021/04/02 05:18:16;;;;;;;3.60;2.10;;;;;;;5.92;41.43;102048.50;7920212;28;20042;-64
2021/04/02 05:22:09;;;;;;;8.05;2.42;;;;;;;5.90;41.31;102035.50;7925345;28;20036;-64
2021/04/02 05:25:59;;;;;;;6.80;2.35;;;;;;;5.92;41.28;102049.38;7934170;28;20506;-64
2021/04/02 05:29:50;;;;;;;6.05;2.55;;;;;;;5.94;41.28;102058.00;7926150;28;20033;-64
2021/04/02 05:33:41;;;;;;;6.57;2.55;;;;;;;5.93;41.35;102056.28;7929808;28;20116;-64
2021/04/02 05:37:31;;;;;;;10.27;3.22;;;;;;;5.93;41.30;102061.50;7927145;28;20042;-64
2021/04/02 05:41:34;;;;;;;8.13;3.92;;;;;;;5.97;41.63;102057.91;7926308;28;20330;-64
2021/04/02 05:45:26;;;;;;;16.05;7.57;;;;;;;5.98;41.27;102063.97;7930953;28;20157;-64
2021/04/02 05:49:20;;;;;;;21.85;9.55;;;;;;;5.95;41.70;102079.72;7925372;28;20121;-64
2021/04/02 05:53:11;;;;;;;30.83;12.85;;;;;;;5.93;41.55;102066.69;7926060;28;20034;-64
2021/04/02 05:57:03;;;;;;;32.05;14.20;;;;;;;5.92;41.71;102072.84;7926989;28;20698;-64
2021/04/02 06:00:54;;;;;;;25.08;13.10;;;;;;;5.90;41.53;102084.19;7930855;28;20125;-65
2021/04/02 06:04:45;;;;;;;35.72;13.32;;;;;;;5.84;41.72;102066.97;7933593;28;20042;-64
2021/04/02 06:08:52;;;;;;;24.60;12.70;;;;;;;5.88;41.92;102075.56;7933403;28;20046;-64
2021/04/02 06:12:43;;;;;;;24.60;11.95;;;;;;;5.88;41.71;102072.97;7938540;28;20648;-64
2021/04/02 06:16:34;;;;;;;20.02;11.60;;;;;;;5.86;41.76;102083.44;7931410;28;20037;-64
2021/04/02 06:20:45;;;;;;;20.63;10.25;;;;;;;5.86;41.95;102078.22;7930845;28;20056;-64
2021/04/02 06:24:47;;;;;;;19.63;8.90;;;;;;;5.85;42.19;102076.50;7931540;28;20042;-64
2021/04/02 06:28:39;;;;;;;23.20;8.52;;;;;;;5.84;42.34;102077.41;7932854;28;20049;-64
2021/04/02 06:32:35;;;;;;;15.00;8.27;;;;;;;5.89;41.97;102079.91;7936766;28;20030;-64
2021/04/02 06:36:28;;;;;;;16.80;9.35;;;;;;;5.90;42.36;102078.97;7927604;28;20125;-64
2021/04/02 06:40:20;;;;;;;16.17;8.40;;;;;;;5.92;42.38;102075.44;7925355;28;20510;-64
2021/04/02 06:44:10;;;;;;;13.60;7.32;;;;;;;5.92;42.22;102074.59;7938293;28;20045;-64
2021/04/02 06:48:10;;;;;;;11.45;6.90;;;;;;;5.90;42.47;102076.38;7936742;28;20046;-64
2021/04/02 06:52:00;;;;;;;11.27;6.30;;;;;;;5.93;42.44;102078.91;7938307;28;20149;-64
2021/04/02 06:55:56;;;;;;;10.75;5.47;;;;;;;5.93;42.80;102073.69;7930710;28;20057;-64
2021/04/02 06:59:48;;;;;;;10.45;5.53;;;;;;;6.01;42.47;102083.03;7929787;28;20398;-64
2021/04/02 07:03:42;;;;;;;16.67;7.90;;;;;;;6.05;42.47;102079.44;7929364;28;20038;-64
2021/04/02 07:07:36;;;;;;;25.50;12.65;;;;;;;6.11;42.75;102089.69;7928982;28;20053;-64
2021/04/02 07:11:28;;;;;;;29.85;14.18;;;;;;;6.14;42.70;102090.50;7929307;28;20026;-64
2021/04/02 07:15:19;;;;;;;36.40;17.98;;;;;;;6.10;42.51;102090.56;7930613;28;20046;-64
2021/04/02 07:19:10;;;;;;;41.22;18.50;;;;;;;6.09;42.74;102086.28;7930347;28;20494;-64
2021/04/02 07:23:01;;;;;;;25.17;13.95;;;;;;;6.10;42.83;102101.00;7921484;28;20529;-64
2021/04/02 07:26:52;;;;;;;29.85;12.48;;;;;;;6.08;42.85;102087.16;7930849;28;20057;-64
2021/04/02 07:30:44;;;;;;;17.40;9.40;;;;;;;6.18;42.81;102106.00;7929559;28;20514;-64
2021/04/02 07:34:35;;;;;;;17.85;9.15;;;;;;;6.10;42.62;102085.34;7930576;28;20063;-65
2021/04/02 07:38:34;;;;;;;20.00;9.27;;;;;;;6.19;42.86;102096.44;7930433;28;20506;-64
2021/04/02 07:42:30;;;;;;;13.23;7.72;;;;;;;6.22;42.87;102101.59;7930230;28;20046;-64
2021/04/02 07:46:28;;;;;;;17.05;7.93;;;;;;;6.30;43.19;102105.69;7929731;28;20042;-64
2021/04/02 07:50:32;;;;;;;;;;;;;;;6.25;42.68;102106.69;7930148;28;20617;-63
2021/04/02 07:54:31;;;;;;;19.55;11.70;;;;;;;6.30;42.79;102110.91;7929871;28;19917;-64
2021/04/02 07:58:28;;;;;;;23.52;13.85;;;;;;;6.35;42.87;102109.00;7930061;28;20176;-64
2021/04/02 08:02:29;;;;;;;26.10;14.90;;;;;;;6.37;43.07;102107.22;7920598;28;20199;-64
2021/04/02 08:06:37;;;;;;;26.48;13.38;;;;;;;6.42;43.10;102109.69;7928617;28;20096;-64
2021/04/02 08:10:28;;;;;;;30.33;16.55;;;;;;;6.45;43.13;102107.84;7930260;28;20049;-65
2021/04/02 08:14:38;;;;;;;28.75;16.33;;;;;;;6.49;43.29;102119.03;7929435;28;20034;-65
2021/04/02 08:18:29;;;;;;;31.55;17.00;;;;;;;6.52;43.26;102122.41;7926729;28;20828;-65
2021/04/02 08:22:21;;;;;;;24.90;14.63;;;;;;;6.55;43.04;102124.09;7929685;28;20033;-65
2021/04/02 08:26:13;;;;;;;23.52;14.52;;;;;;;6.58;43.05;102126.59;7928936;28;20038;-64
2021/04/02 08:30:05;;;;;;;27.83;14.18;;;;;;;6.63;43.30;102137.78;7928000;28;20034;-65
2021/04/02 08:33:56;;;;;;;20.58;12.43;;;;;;;6.62;42.92;102128.22;7922910;28;20057;-65
2021/04/02 08:38:01;;;;;;;19.77;11.48;;;;;;;6.69;43.04;102134.09;7926030;28;20041;-64
2021/04/02 08:42:00;;;;;;;23.27;14.10;;;;;;;6.73;42.99;102134.00;7926714;28;20030;-65
2021/04/02 08:45:51;;;;;;;28.23;16.55;;;;;;;6.77;43.36;102142.59;7933381;28;20537;-65
2021/04/02 08:49:53;;;;;;;25.67;16.08;;;;;;;6.80;42.76;102142.53;7926491;28;20029;-64
2021/04/02 08:53:44;;;;;;;27.80;17.98;;;;;;;6.82;43.09;102136.34;7929900;28;20117;-64
2021/04/02 08:57:37;;;;;;;29.30;16.55;;;;;;;6.88;42.81;102149.25;7928920;28;20646;-64
2021/04/02 09:01:28;;;;;;;28.30;17.00;;;;;;;6.92;43.00;102150.84;7927900;28;20049;-64
2021/04/02 09:05:19;;;;;;;29.80;16.50;;;;;;;6.95;43.04;102149.88;7928508;28;20431;-65
2021/04/02 09:09:16;;;;;;;25.80;16.27;;;;;;;6.99;43.01;102154.13;7926089;28;20038;-65
2021/04/02 09:13:06;;;;;;;27.77;15.50;;;;;;;6.97;42.87;102154.16;7927703;28;20041;-65
2021/04/02 09:16:57;;;;;;;31.48;17.70;;;;;;;6.94;43.06;102162.09;7928355;28;20039;-64
2021/04/02 09:20:49;;;;;;;30.63;17.85;;;;;;;6.89;43.00;102148.31;7928085;28;20068;-64
2021/04/02 09:24:42;;;;;;;25.33;16.40;;;;;;;6.93;43.07;102154.28;7928707;28;20033;-64
2021/04/02 09:28:35;;;;;;;31.63;17.60;;;;;;;6.97;42.87;102154.16;7947693;28;20052;-64
2021/04/02 09:32:27;;;;;;;28.15;16.88;;;;;;;7.02;42.98;102146.19;7931876;28;20082;-64
2021/04/02 09:36:19;;;;;;;32.30;17.77;;;;;;;7.04;43.07;102141.78;7919428;28;20428;-64
2021/04/02 09:40:10;;;;;;;24.48;15.05;;;;;;;7.12;43.23;102142.38;7936298;28;20072;-64
2021/04/02 09:44:13;;;;;;;24.55;14.75;;;;;;;7.16;42.92;102156.22;7932558;28;20045;-64
2021/04/02 09:48:18;;;;;;;22.92;13.20;;;;;;;7.18;42.99;102154.38;7935842;28;20046;-64
2021/04/02 09:52:10;;;;;;;17.83;12.15;;;;;;;7.20;43.03;102148.22;7925296;28;20046;-66
2021/04/02 09:56:00;;;;;;;17.85;12.02;;;;;;;7.23;43.00;102144.66;7934301;28;20403;-64
2021/04/02 09:59:51;;;;;;;20.15;10.70;;;;;;;7.26;43.16;102141.94;7928761;28;20541;-64
2021/04/02 10:03:42;;;;;;;18.45;9.65;;;;;;;7.27;43.40;102136.66;7916428;28;20044;-64
2021/04/02 10:07:49;;;;;;;17.58;9.57;;;;;;;7.30;43.25;102130.50;7933149;28;20033;-64
2021/04/02 10:11:42;;;;;;;14.52;7.80;;;;;;;7.38;43.27;102129.31;7938108;28;20037;-64
2021/04/02 10:15:33;;;;;;;16.27;9.57;;;;;;;7.46;43.04;102135.16;7925228;28;20117;-64
2021/04/02 10:19:24;;;;;;;14.68;8.93;;;;;;;7.52;43.08;102135.84;7934030;28;20048;-64
2021/04/02 10:23:15;;;;;;;16.85;9.20;;;;;;;7.57;42.80;102147.88;7928199;28;20038;-64
2021/04/02 10:27:05;;;;;;;15.57;9.15;;;;;;;7.61;42.88;102140.78;7932947;28;20041;-64
2021/04/02 10:30:57;;;;;;;14.60;8.60;;;;;;;7.62;42.92;102143.34;7934012;28;20141;-64
2021/04/02 10:34:47;;;;;;;18.15;9.48;;;;;;;7.66;43.09;102138.88;7930668;28;20034;-64
2021/04/02 10:38:38;;;;;;;16.85;10.32;;;;;;;7.70;43.11;102140.47;7931328;28;20041;-64
2021/04/02 10:42:29;;;;;;;18.25;9.70;;;;;;;7.74;42.74;102129.00;7932006;28;20065;-64
2021/04/02 10:46:19;;;;;;;19.13;10.07;;;;;;;7.75;42.86;102125.50;7931729;28;20575;-64
2021/04/02 10:50:11;;;;;;;13.18;7.78;;;;;;;7.79;43.00;102130.56;7928104;28;20774;-65
2021/04/02 10:54:02;;;;;;;16.85;8.18;;;;;;;7.79;42.69;102134.94;7930999;28;20037;-64
2021/04/02 10:57:54;;;;;;;12.10;6.25;;;;;;;7.78;42.95;102130.59;7930989;28;20038;-65
2021/04/02 11:01:45;;;;;;;15.38;5.68;;;;;;;7.78;42.83;102135.84;7928647;28;20117;-64
2021/04/02 11:05:36;;;;;;;9.90;4.68;;;;;;;7.78;43.18;102135.84;7928610;28;20045;-65
2021/04/02 11:09:27;;;;;;;9.32;4.20;;;;;;;7.78;42.70;102141.06;7934474;28;20038;-66
2021/04/02 11:13:17;;;;;;;10.48;3.50;;;;;;;7.77;42.69;102137.59;7931364;28;20414;-64
2021/04/02 11:17:08;;;;;;;7.53;3.72;;;;;;;7.77;42.75;102150.69;7931463;28;20096;-64
2021/04/02 11:20:59;;;;;;;4.90;3.20;;;;;;;7.77;42.63;102147.19;7933086;28;20035;-64
2021/04/02 11:24:52;;;;;;;8.52;3.83;;;;;;;7.77;42.86;102142.81;7919046;28;20033;-65
2021/04/02 11:28:42;;;;;;;5.47;2.67;;;;;;;7.80;42.36;102134.88;7935218;28;20048;-65
2021/04/02 11:32:33;;;;;;;5.07;2.05;;;;;;;7.81;42.89;102131.34;7929592;28;20112;-64
2021/04/02 11:36:25;;;;;;;2.63;1.70;;;;;;;7.88;42.36;102142.44;7930918;28;20680;-64
2021/04/02 11:40:15;;;;;;;4.28;1.75;;;;;;;7.88;42.54;102143.31;7934484;28;20035;-64
2021/04/02 11:44:06;;;;;;;4.22;1.77;;;;;;;7.87;42.74;102138.16;7929364;28;20038;-65
2021/04/02 11:47:57;;;;;;;4.32;1.85;;;;;;;7.89;42.31;102139.78;7929507;28;20741;-64
2021/04/02 11:51:48;;;;;;;3.85;1.42;;;;;;;7.88;42.38;102153.78;7932112;28;20109;-64
2021/04/02 11:55:38;;;;;;;4.65;2.00;;;;;;;7.85;42.41;102151.25;7928169;28;20033;-64
2021/04/02 11:59:29;;;;;;;4.80;1.63;;;;;;;7.78;42.52;102151.53;7939652;28;20046;-64
2021/04/02 12:03:20;;;;;;;5.75;1.63;;;;;;;7.78;42.61;102141.06;7925204;28;20036;-64
2021/04/02 12:07:10;;;;;;;4.28;1.40;;;;;;;7.76;42.25;102127.19;7931107;28;20450;-64
2021/04/02 12:11:01;;;;;;;4.07;1.83;;;;;;;7.81;42.68;102135.72;7919924;28;20038;-64
2021/04/02 12:14:54;;;;;;;8.65;1.52;;;;;;;7.81;42.34;102123.50;7919339;28;20030;-64
2021/04/02 12:18:44;;;;;;;2.13;1.38;;;;;;;7.95;42.54;102133.50;7914125;28;20045;-64
2021/04/02 12:22:35;;;;;;;4.78;1.73;;;;;;;8.01;42.40;102116.69;7933850;28;20778;-64
2021/04/02 12:26:26;;;;;;;6.43;1.70;;;;;;;8.07;42.53;102125.22;7923689;28;20037;-65
2021/04/02 12:30:17;;;;;;;3.13;1.83;;;;;;;8.10;42.38;102121.63;7923680;28;20026;-65
2021/04/02 12:34:08;;;;;;;2.92;1.60;;;;;;;8.12;42.32;102122.47;7940695;28;20537;-64
2021/04/02 12:38:08;;;;;;;6.25;1.48;;;;;;;8.16;42.03;102124.91;7927670;28;20042;-64
2021/04/02 12:41:59;;;;;;;6.05;1.67;;;;;;;8.20;42.23;102105.56;7923140;28;20513;-65
2021/04/02 12:45:50;;;;;;;4.78;1.70;;;;;;;8.33;41.96;102106.81;7923099;28;20043;-64
2021/04/02 12:49:40;;;;;;;2.72;1.40;;;;;;;8.43;42.12;102101.22;7926993;28;20042;-64
2021/04/02 12:53:31;;;;;;;2.88;1.20;;;;;;;8.55;42.15;102108.63;7927510;28;20038;-65
2021/04/02 12:57:21;;;;;;;4.78;1.60;;;;;;;8.62;41.61;102097.88;7928794;28;20117;-65
2021/04/02 13:01:12;;;;;;;3.95;1.40;;;;;;;8.70;41.90;102074.84;7927750;28;20048;-65
2021/04/02 13:05:03;;;;;;;3.38;1.13;;;;;;;8.89;41.76;102093.31;7926875;28;20407;-65
2021/04/02 13:08:55;;;;;;;6.80;1.48;;;;;;;8.99;41.58;102094.66;7925272;28;20860;-65
2021/04/02 13:12:47;;;;;;;5.68;1.40;;;;;;;9.06;41.61;102093.50;7933297;28;20026;-64
2021/04/02 13:16:38;;;;;;;4.60;1.58;;;;;;;9.15;41.44;102087.88;7928110;28;20042;-64
2021/04/02 13:20:30;;;;;;;4.45;1.52;;;;;;;9.19;41.43;102089.47;7926320;28;20038;-65
2021/04/02 13:24:21;;;;;;;5.82;1.50;;;;;;;9.26;41.18;102088.28;7928144;28;20040;-65
2021/04/02 13:28:12;;;;;;;4.45;1.85;;;;;;;9.29;40.98;102088.16;7928085;28;20042;-65
2021/04/02 13:32:03;;;;;;;3.10;1.48;;;;;;;9.28;40.93;102090.84;7926609;28;20285;-65
2021/04/02 13:35:54;;;;;;;5.15;1.30;;;;;;;9.27;40.85;102095.25;7925791;28;20531;-65
2021/04/02 13:39:45;;;;;;;3.03;1.67;;;;;;;9.29;40.71;102105.66;7927718;28;20041;-66
2021/04/02 13:43:35;;;;;;;1.58;1.10;;;;;;;9.32;40.74;102108.16;7930207;28;20042;-65
2021/04/02 13:47:26;;;;;;;4.03;1.92;;;;;;;9.33;40.77;102100.22;7917693;28;20056;-65
2021/04/02 13:51:17;;;;;;;4.10;1.70;;;;;;;9.34;40.72;102095.81;7921007;28;20056;-66
2021/04/02 13:55:10;;;;;;;3.28;1.45;;;;;;;9.38;40.55;102088.72;7917667;28;20056;-66
2021/04/02 13:59:00;;;;;;;6.85;2.03;;;;;;;9.46;40.73;102091.88;7921795;28;20038;-66
2021/04/02 14:02:52;;;;;;;4.53;1.67;;;;;;;9.50;40.28;102091.66;7930431;28;20053;-65
2021/04/02 14:06:42;;;;;;;5.70;1.70;;;;;;;9.50;40.15;102082.94;7932137;28;20034;-66
2021/04/02 14:10:37;;;;;;;4.75;2.03;;;;;;;9.48;40.01;102077.78;7925022;28;20179;-66
2021/04/02 14:14:28;;;;;;;2.20;1.65;;;;;;;9.49;39.92;102074.25;7919788;28;20035;-65
2021/04/02 14:18:20;;;;;;;4.38;1.80;;;;;;;9.49;40.17;102068.16;7922064;28;20827;-65
2021/04/02 14:22:11;;;;;;;7.80;1.48;;;;;;;9.51;40.10;102064.53;7932186;28;20045;-65
2021/04/02 14:26:02;;;;;;;5.80;2.10;;;;;;;9.50;39.83;102064.59;7931536;28;20116;-65
2021/04/02 14:29:52;;;;;;;4.53;1.90;;;;;;;9.48;39.81;102045.47;7930682;28;20070;-65
2021/04/02 14:33:43;;;;;;;5.43;1.52;;;;;;;9.47;40.02;102044.59;7932210;28;20096;-65
2021/04/02 14:37:33;;;;;;;5.57;2.30;;;;;;;9.45;39.63;102056.09;7932235;28;20034;-66
2021/04/02 14:41:24;;;;;;;5.50;1.85;;;;;;;9.35;39.75;102055.59;7933102;28;20122;-66
2021/04/02 14:45:15;;;;;;;2.95;1.75;;;;;;;9.30;39.35;102061.00;7930171;28;20034;-67
2021/04/02 14:49:06;;;;;;;6.05;2.28;;;;;;;9.27;39.27;102057.66;7931114;28;20053;-67
2021/04/02 14:52:57;;;;;;;3.17;1.52;;;;;;;9.22;39.55;102060.47;7931742;28;20605;-66
2021/04/02 14:56:47;;;;;;;4.97;1.88;;;;;;;9.30;39.39;102049.66;7936058;28;20157;-67
2021/04/02 15:00:43;;;;;;;8.98;1.73;;;;;;;9.28;39.73;102041.88;7926502;28;20129;-66
2021/04/02 15:04:34;;;;;;;4.03;1.40;;;;;;;9.36;39.64;102057.31;7928963;28;20050;-65
2021/04/02 15:08:25;;;;;;;2.88;1.40;;;;;;;9.41;39.74;102046.66;7933853;28;20121;-65
2021/04/02 15:12:16;;;;;;;7.90;1.70;;;;;;;9.46;39.63;102042.88;7931300;28;20034;-65
2021/04/02 15:16:06;;;;;;;11.50;2.05;;;;;;;9.48;39.41;102038.44;7927982;28;20056;-65
2021/04/02 15:19:57;;;;;;;5.82;1.50;;;;;;;9.49;39.44;102031.44;7936429;28;20034;-66
2021/04/02 15:23:48;;;;;;;5.50;1.90;;;;;;;9.45;39.30;102032.47;7929451;28;20034;-65
2021/04/02 15:27:39;;;;;;;2.17;1.50;;;;;;;9.45;39.17;102019.38;7929688;28;20487;-65
2021/04/02 15:31:30;;;;;;;4.85;1.67;;;;;;;9.43;39.25;102016.78;7931651;28;20097;-65
2021/04/02 15:35:21;;;;;;;3.85;1.70;;;;;;;9.40;39.29;102024.81;7930040;28;20042;-65
2021/04/02 15:39:11;;;;;;;3.58;1.92;;;;;;;9.39;39.22;102023.09;7929322;28;20030;-66
2021/04/02 15:43:02;;;;;;;3.25;1.73;;;;;;;9.36;39.38;102025.00;7929893;28;20031;-65
2021/04/02 15:46:53;;;;;;;5.45;1.98;;;;;;;9.28;39.08;102033.16;7931666;28;20157;-65
2021/04/02 15:50:43;;;;;;;4.07;2.22;;;;;;;9.26;39.10;102041.09;7930016;28;20050;-65
2021/04/02 15:54:35;;;;;;;4.13;1.98;;;;;;;9.25;38.90;102044.63;7930427;28;20165;-66
2021/04/02 15:58:26;;;;;;;5.25;2.03;;;;;;;9.21;39.08;102047.44;7930495;28;20100;-65
2021/04/02 16:02:16;;;;;;;8.27;2.60;;;;;;;9.15;39.27;102040.69;7931655;28;20034;-65
2021/04/02 16:06:07;;;;;;;6.70;1.70;;;;;;;9.09;38.95;102038.31;7909723;28;20038;-66
2021/04/02 16:09:58;;;;;;;4.05;2.33;;;;;;;9.04;38.89;102042.06;7913093;28;20037;-66
2021/04/02 16:13:49;;;;;;;6.20;1.70;;;;;;;9.03;39.17;102069.16;7906708;28;20042;-66
2021/04/02 16:17:39;;;;;;;4.20;1.52;;;;;;;8.96;39.35;102070.31;7907830;28;20084;-66
2021/04/02 16:21:30;;;;;;;8.65;2.20;;;;;;;8.84;39.29;102069.03;7912684;28;20025;-67
2021/04/02 16:25:22;;;;;;;6.53;1.80;;;;;;;8.78;39.05;102064.94;7910692;28;20494;-65
2021/04/02 16:29:13;;;;;;;7.55;1.65;;;;;;;8.70;39.08;102072.22;7902619;28;20442;-66
2021/04/02 16:33:04;;;;;;;5.40;1.92;;;;;;;8.63;39.34;102073.38;7901934;28;20054;-66
2021/04/02 16:36:54;;;;;;;5.68;2.00;;;;;;;8.60;39.15;102085.72;7906745;28;20077;-66
2021/04/02 16:40:45;;;;;;;5.43;1.77;;;;;;;8.52;39.12;102072.06;7909074;28;20088;-66
2021/04/02 16:44:36;;;;;;;3.22;1.63;;;;;;;8.44;39.12;102061.03;7904433;28;20752;-66
2021/04/02 16:48:27;;;;;;;6.70;2.13;;;;;;;8.38;39.34;102059.50;7918378;28;20046;-66
2021/04/02 16:52:17;;;;;;;5.28;1.70;;;;;;;8.34;39.44;102065.75;7904786;28;20038;-67
2021/04/02 16:56:08;;;;;;;6.65;1.77;;;;;;;8.32;39.61;102072.84;7904226;28;20042;-66
2021/04/02 17:00:00;;;;;;;3.95;1.52;;;;;;;8.28;39.41;102072.09;7918909;28;20053;-68
2021/04/02 17:03:50;;;;;;;3.25;1.95;;;;;;;8.24;39.70;102062.66;7905847;28;20073;-66
2021/04/02 17:07:41;;;;;;;3.10;1.60;;;;;;;8.22;39.50;102077.56;7917753;28;20517;-66
2021/04/02 17:11:33;;;;;;;6.30;1.40;;;;;;;8.18;39.79;102072.50;7905539;28;21206;-67
2021/04/02 17:15:23;;;;;;;2.65;1.13;;;;;;;8.16;39.51;102074.31;7902971;28;20135;-66
2021/04/02 17:19:20;;;;;;;3.47;1.65;;;;;;;8.14;39.52;102070.91;7907722;28;20180;-68
2021/04/02 17:23:12;;;;;;;5.25;1.67;;;;;;;8.12;39.78;102076.22;7904669;28;20046;-68
2021/04/02 17:27:03;;;;;;;9.82;1.63;;;;;;;8.12;39.65;102067.50;7911185;28;20042;-68
2021/04/02 17:30:54;;;;;;;2.25;1.55;;;;;;;8.10;39.51;102062.31;7906601;28;20053;-67
2021/04/02 17:34:44;;;;;;;4.22;1.70;;;;;;;8.13;39.69;102077.03;7908197;28;20055;-67
2021/04/02 17:38:35;;;;;;;6.30;1.27;;;;;;;8.09;39.75;102065.78;7915396;28;20034;-67
2021/04/02 17:42:26;;;;;;;4.22;2.25;;;;;;;8.05;39.59;102064.19;7912132;28;20034;-66
2021/04/02 17:46:16;;;;;;;4.93;1.55;;;;;;;8.01;39.48;102067.84;7908362;28;20077;-67
2021/04/02 17:50:08;;;;;;;2.42;1.30;;;;;;;7.98;39.82;102062.72;7910605;28;20136;-67
2021/04/02 17:53:59;;;;;;;3.67;1.73;;;;;;;7.96;39.89;102059.34;7908343;28;20034;-68
2021/04/02 17:57:50;;;;;;;5.88;1.30;;;;;;;7.93;39.62;102056.81;7914082;28;20057;-67
2021/04/02 18:01:40;;;;;;;2.55;1.40;;;;;;;7.93;39.77;102047.19;7921320;28;20045;-67
2021/04/02 18:05:31;;;;;;;3.22;0.98;;;;;;;7.94;39.78;102067.22;7908552;28;20034;-67
2021/04/02 18:09:22;;;;;;;7.97;1.80;;;;;;;7.90;39.67;102067.38;7930627;28;20034;-67